首页
METAR-TAF:

METAR-TAF

机场 :

重庆江北国际机场

重庆, 中华人民共和国

纬度: 29-31N, 经度: 106-29E, 海拔: 351米

当前天气观测

该预报发布于59分钟前的10:00 UTC
风速4节,风向,在东南南转西南之间变化
温度 17°C
湿度 68%
气压 1014 hPa
能见度10公里或以上
1500米以下无云,无积雨云

METAR: ZUCK 151000Z 18002MPS 140V210 CAVOK 17/11 Q1014 NOSIG

时间: 18:59 (10:59 UTC)

预报

该预报发布于7小时和52分钟前的03:07 UTC
预报有效从15日的 06点(UTC)到 16日的 06点(UTC)
风速6节,风向南转南东
能見度: 6000
散云层高于5000英尺

TAF: ZUCK 150307Z 1506/1606 16003MPS 6000 SCT050 TX19/1508Z TN12/1522Z

超过4000个机场的气象观测和天气预报(METAR&TAF报告)。

可查询的气象台以黄色和红色小点在地图上表示。

将鼠标移到小点上方,可查看气象台名称。

然后点击查看天气观测和预报。

如需切换地图:点击带黑十字的绿色按钮放大地图;点击带横线的绿色按钮缩小地图;或者点击绿色箭头查看邻近地区的地图。


METAR-TAF: